sensor_id;sensor_type;location;lat;lon;timestamp;pressure;altitude;pressure_sealevel;temperature;humidity
2268;BME280;11052;43.338;25.502;2023-05-19T00:01:27;100670.97;;;13.54;100.00
2268;BME280;11052;43.338;25.502;2023-05-19T00:03:57;100678.94;;;13.50;100.00
2268;BME280;11052;43.338;25.502;2023-05-19T00:06:30;100674.53;;;13.52;100.00
2268;BME280;11052;43.338;25.502;2023-05-19T00:08:58;100670.97;;;13.54;100.00
2268;BME280;11052;43.338;25.502;2023-05-19T00:11:26;100678.16;;;13.48;100.00
2268;BME280;11052;43.338;25.502;2023-05-19T00:13:58;100675.50;;;13.49;100.00
2268;BME280;11052;43.338;25.502;2023-05-19T00:16:27;100673.94;;;13.43;100.00
2268;BME280;11052;43.338;25.502;2023-05-19T00:18:54;100670.44;;;13.44;100.00
2268;BME280;11052;43.338;25.502;2023-05-19T00:21:22;100675.59;;;13.46;100.00
2268;BME280;11052;43.338;25.502;2023-05-19T00:23:51;100669.53;;;13.45;100.00
2268;BME280;11052;43.338;25.502;2023-05-19T00:26:18;100668.69;;;13.45;100.00
2268;BME280;11052;43.338;25.502;2023-05-19T00:28:46;100668.16;;;13.35;100.00
2268;BME280;11052;43.338;25.502;2023-05-19T00:31:13;100668.84;;;13.40;100.00
2268;BME280;11052;43.338;25.502;2023-05-19T00:33:40;100672.53;;;13.35;100.00
2268;BME280;11052;43.338;25.502;2023-05-19T00:36:07;100672.41;;;13.38;100.00
2268;BME280;11052;43.338;25.502;2023-05-19T00:38:35;100675.88;;;13.38;100.00
2268;BME280;11052;43.338;25.502;2023-05-19T00:41:05;100676.09;;;13.32;100.00
2268;BME280;11052;43.338;25.502;2023-05-19T00:43:32;100683.84;;;13.34;100.00
2268;BME280;11052;43.338;25.502;2023-05-19T00:46:00;100674.38;;;13.31;100.00
2268;BME280;11052;43.338;25.502;2023-05-19T00:48:27;100677.88;;;13.30;100.00
2268;BME280;11052;43.338;25.502;2023-05-19T00:50:55;100670.28;;;13.24;100.00
2268;BME280;11052;43.338;25.502;2023-05-19T00:53:26;100677.19;;;13.25;100.00
2268;BME280;11052;43.338;25.502;2023-05-19T00:55:54;100671.53;;;13.12;100.00
2268;BME280;11052;43.338;25.502;2023-05-19T00:58:24;100677.66;;;13.11;100.00
2268;BME280;11052;43.338;25.502;2023-05-19T01:00:54;100674.13;;;13.12;100.00
2268;BME280;11052;43.338;25.502;2023-05-19T01:03:28;100674.88;;;13.18;100.00
2268;BME280;11052;43.338;25.502;2023-05-19T01:05:55;100669.88;;;13.10;100.00
2268;BME280;11052;43.338;25.502;2023-05-19T01:08:26;100672.59;;;13.07;100.00
2268;BME280;11052;43.338;25.502;2023-05-19T01:10:53;100670.28;;;12.99;100.00
2268;BME280;11052;43.338;25.502;2023-05-19T01:13:21;100680.69;;;12.99;100.00
2268;BME280;11052;43.338;25.502;2023-05-19T01:15:58;100673.91;;;12.95;100.00
2268;BME280;11052;43.338;25.502;2023-05-19T01:18:33;100667.94;;;12.92;100.00
2268;BME280;11052;43.338;25.502;2023-05-19T01:21:19;100676.75;;;12.88;100.00
2268;BME280;11052;43.338;25.502;2023-05-19T01:24:00;100671.75;;;12.82;100.00
2268;BME280;11052;43.338;25.502;2023-05-19T01:26:58;100677.75;;;12.84;100.00
2268;BME280;11052;43.338;25.502;2023-05-19T01:29:41;100682.09;;;12.83;100.00
2268;BME280;11052;43.338;25.502;2023-05-19T01:32:19;100684.66;;;12.85;100.00
2268;BME280;11052;43.338;25.502;2023-05-19T01:34:48;100683.91;;;12.81;100.00
2268;BME280;11052;43.338;25.502;2023-05-19T01:37:16;100687.56;;;12.75;100.00
2268;BME280;11052;43.338;25.502;2023-05-19T01:39:45;100688.31;;;12.79;100.00
2268;BME280;11052;43.338;25.502;2023-05-19T01:42:14;100683.91;;;12.81;100.00
2268;BME280;11052;43.338;25.502;2023-05-19T01:44:42;100687.66;;;12.72;100.00
2268;BME280;11052;43.338;25.502;2023-05-19T01:47:10;100683.34;;;12.71;100.00
2268;BME280;11052;43.338;25.502;2023-05-19T01:49:39;100691.16;;;12.71;100.00
2268;BME280;11052;43.338;25.502;2023-05-19T01:52:06;100689.31;;;12.75;100.00
2268;BME280;11052;43.338;25.502;2023-05-19T01:54:33;100697.25;;;12.70;100.00
2268;BME280;11052;43.338;25.502;2023-05-19T01:57:08;100701.63;;;12.70;100.00
2268;BME280;11052;43.338;25.502;2023-05-19T01:59:49;100701.88;;;12.62;100.00
2268;BME280;11052;43.338;25.502;2023-05-19T02:02:36;100707.16;;;12.59;100.00
2268;BME280;11052;43.338;25.502;2023-05-19T02:05:09;100706.56;;;12.51;100.00
2268;BME280;11052;43.338;25.502;2023-05-19T02:07:43;100706.50;;;12.53;100.00
2268;BME280;11052;43.338;25.502;2023-05-19T02:10:18;100710.09;;;12.48;100.00
2268;BME280;11052;43.338;25.502;2023-05-19T02:12:52;100709.25;;;12.48;100.00
2268;BME280;11052;43.338;25.502;2023-05-19T02:15:21;100715.25;;;12.50;100.00
2268;BME280;11052;43.338;25.502;2023-05-19T02:17:50;100709.28;;;12.46;100.00
2268;BME280;11052;43.338;25.502;2023-05-19T02:20:20;100722.53;;;12.39;100.00
2268;BME280;11052;43.338;25.502;2023-05-19T02:22:47;100719.03;;;12.40;100.00
2268;BME280;11052;43.338;25.502;2023-05-19T02:25:14;100723.44;;;12.38;100.00
2268;BME280;11052;43.338;25.502;2023-05-19T02:27:42;100734.72;;;12.37;100.00
2268;BME280;11052;43.338;25.502;2023-05-19T02:30:09;100736.56;;;12.33;100.00
2268;BME280;11052;43.338;25.502;2023-05-19T02:32:37;100736.53;;;12.35;100.00
2268;BME280;11052;43.338;25.502;2023-05-19T02:35:05;100745.25;;;12.32;100.00
2268;BME280;11052;43.338;25.502;2023-05-19T02:37:33;100747.00;;;12.32;100.00
2268;BME280;11052;43.338;25.502;2023-05-19T02:40:00;100746.13;;;12.33;100.00
2268;BME280;11052;43.338;25.502;2023-05-19T02:42:28;100752.25;;;12.30;100.00
2268;BME280;11052;43.338;25.502;2023-05-19T02:44:55;100754.81;;;12.32;100.00
2268;BME280;11052;43.338;25.502;2023-05-19T02:47:23;100753.06;;;12.32;100.00
2268;BME280;11052;43.338;25.502;2023-05-19T02:49:50;100755.72;;;12.31;100.00
2268;BME280;11052;43.338;25.502;2023-05-19T02:52:17;100756.50;;;12.33;100.00
2268;BME280;11052;43.338;25.502;2023-05-19T02:54:45;100758.22;;;12.34;100.00
2268;BME280;11052;43.338;25.502;2023-05-19T02:57:12;100761.88;;;12.27;100.00
2268;BME280;11052;43.338;25.502;2023-05-19T02:59:39;100766.28;;;12.25;100.00
2268;BME280;11052;43.338;25.502;2023-05-19T03:02:07;100765.25;;;12.30;100.00
2268;BME280;11052;43.338;25.502;2023-05-19T03:04:34;100773.00;;;12.32;100.00
2268;BME280;11052;43.338;25.502;2023-05-19T03:07:06;100773.00;;;12.32;100.00
2268;BME280;11052;43.338;25.502;2023-05-19T03:09:34;100780.63;;;12.38;100.00
2268;BME280;11052;43.338;25.502;2023-05-19T03:12:03;100777.31;;;12.33;100.00
2268;BME280;11052;43.338;25.502;2023-05-19T03:14:32;100784.25;;;12.32;100.00
2268;BME280;11052;43.338;25.502;2023-05-19T03:16:59;100783.31;;;12.35;100.00
2268;BME280;11052;43.338;25.502;2023-05-19T03:19:26;100779.06;;;12.32;100.00
2268;BME280;11052;43.338;25.502;2023-05-19T03:21:53;100781.53;;;12.37;100.00
2268;BME280;11052;43.338;25.502;2023-05-19T03:24:21;100791.84;;;12.40;100.00
2268;BME280;11052;43.338;25.502;2023-05-19T03:26:49;100796.19;;;12.39;100.00
2268;BME280;11052;43.338;25.502;2023-05-19T03:29:17;100793.53;;;12.41;100.00
2268;BME280;11052;43.338;25.502;2023-05-19T03:31:45;100796.75;;;12.49;100.00
2268;BME280;11052;43.338;25.502;2023-05-19T03:34:12;100800.25;;;12.48;100.00
2268;BME280;11052;43.338;25.502;2023-05-19T03:36:39;100803.56;;;12.53;100.00
2268;BME280;11052;43.338;25.502;2023-05-19T03:39:06;100798.19;;;12.59;100.00
2268;BME280;11052;43.338;25.502;2023-05-19T03:41:34;100814.56;;;12.63;100.00
2268;BME280;11052;43.338;25.502;2023-05-19T03:44:01;100810.88;;;12.70;100.00
2268;BME280;11052;43.338;25.502;2023-05-19T03:46:29;100810.81;;;12.71;100.00
2268;BME280;11052;43.338;25.502;2023-05-19T03:48:56;100809.69;;;12.80;100.00
2268;BME280;11052;43.338;25.502;2023-05-19T03:51:23;100815.41;;;12.91;100.00
2268;BME280;11052;43.338;25.502;2023-05-19T03:53:53;100810.06;;;12.96;100.00
2268;BME280;11052;43.338;25.502;2023-05-19T03:56:20;100809.97;;;12.99;100.00
2268;BME280;11052;43.338;25.502;2023-05-19T03:58:48;100808.84;;;13.06;100.00
2268;BME280;11052;43.338;25.502;2023-05-19T04:01:15;100814.03;;;13.06;100.00
2268;BME280;11052;43.338;25.502;2023-05-19T04:03:43;100813.69;;;13.18;100.00
2268;BME280;11052;43.338;25.502;2023-05-19T04:06:10;100821.09;;;13.30;100.00
2268;BME280;11052;43.338;25.502;2023-05-19T04:08:38;100824.34;;;13.37;100.00
2268;BME280;11052;43.338;25.502;2023-05-19T04:11:05;100817.84;;;13.50;100.00
2268;BME280;11052;43.338;25.502;2023-05-19T04:13:33;100820.06;;;13.61;100.00
2268;BME280;11052;43.338;25.502;2023-05-19T04:16:00;100826.09;;;13.63;100.00
2268;BME280;11052;43.338;25.502;2023-05-19T04:18:27;100828.75;;;13.86;100.00
2268;BME280;11052;43.338;25.502;2023-05-19T04:20:56;100825.72;;;13.97;100.00
2268;BME280;11052;43.338;25.502;2023-05-19T04:23:23;100828.38;;;14.20;100.00
2268;BME280;11052;43.338;25.502;2023-05-19T04:25:50;100823.81;;;14.50;100.00
2268;BME280;11052;43.338;25.502;2023-05-19T04:28:18;100825.84;;;14.65;100.00
2268;BME280;11052;43.338;25.502;2023-05-19T04:30:46;100828.88;;;14.98;100.00
2268;BME280;11052;43.338;25.502;2023-05-19T04:33:13;100832.38;;;15.19;100.00
2268;BME280;11052;43.338;25.502;2023-05-19T04:35:40;100824.97;;;15.51;100.00
2268;BME280;11052;43.338;25.502;2023-05-19T04:38:09;100831.66;;;15.78;100.00
2268;BME280;11052;43.338;25.502;2023-05-19T04:40:36;100834.78;;;15.86;100.00
2268;BME280;11052;43.338;25.502;2023-05-19T04:43:04;100833.13;;;16.24;100.00
2268;BME280;11052;43.338;25.502;2023-05-19T04:45:34;100837.91;;;16.52;100.00
2268;BME280;11052;43.338;25.502;2023-05-19T04:48:02;100836.66;;;16.80;100.00
2268;BME280;11052;43.338;25.502;2023-05-19T04:50:29;100840.03;;;17.00;100.00
2268;BME280;11052;43.338;25.502;2023-05-19T04:52:56;100844.53;;;17.16;100.00
2268;BME280;11052;43.338;25.502;2023-05-19T04:55:25;100850.88;;;17.29;100.00
2268;BME280;11052;43.338;25.502;2023-05-19T04:57:52;100854.72;;;17.39;100.00
2268;BME280;11052;43.338;25.502;2023-05-19T05:00:20;100848.56;;;17.40;100.00
2268;BME280;11052;43.338;25.502;2023-05-19T05:02:47;100853.72;;;17.59;100.00
2268;BME280;11052;43.338;25.502;2023-05-19T05:05:15;100857.22;;;17.77;100.00
2268;BME280;11052;43.338;25.502;2023-05-19T05:07:42;100848.59;;;17.92;100.00
2268;BME280;11052;43.338;25.502;2023-05-19T05:10:09;100858.00;;;17.96;100.00
2268;BME280;11052;43.338;25.502;2023-05-19T05:12:38;100860.00;;;18.24;100.00
2268;BME280;11052;43.338;25.502;2023-05-19T05:15:07;100865.97;;;18.43;100.00
2268;BME280;11052;43.338;25.502;2023-05-19T05:17:35;100856.19;;;18.62;100.00
2268;BME280;11052;43.338;25.502;2023-05-19T05:20:03;100849.94;;;18.96;100.00
2268;BME280;11052;43.338;25.502;2023-05-19T05:22:31;100853.03;;;19.19;100.00
2268;BME280;11052;43.338;25.502;2023-05-19T05:25:01;100857.47;;;19.03;100.00
2268;BME280;11052;43.338;25.502;2023-05-19T05:27:28;100854.63;;;19.21;100.00
2268;BME280;11052;43.338;25.502;2023-05-19T05:29:57;100850.28;;;19.36;100.00
2268;BME280;11052;43.338;25.502;2023-05-19T05:32:24;100850.19;;;19.53;100.00
2268;BME280;11052;43.338;25.502;2023-05-19T05:34:51;100852.94;;;19.66;100.00
2268;BME280;11052;43.338;25.502;2023-05-19T05:37:18;100862.25;;;19.72;100.00
2268;BME280;11052;43.338;25.502;2023-05-19T05:39:45;100853.59;;;19.70;100.00
2268;BME280;11052;43.338;25.502;2023-05-19T05:42:12;100861.41;;;19.71;100.00
2268;BME280;11052;43.338;25.502;2023-05-19T05:44:40;100871.16;;;19.69;100.00
2268;BME280;11052;43.338;25.502;2023-05-19T05:47:10;100869.50;;;19.82;100.00
2268;BME280;11052;43.338;25.502;2023-05-19T05:49:38;100865.94;;;19.97;100.00
2268;BME280;11052;43.338;25.502;2023-05-19T05:52:07;100873.88;;;20.26;100.00
2268;BME280;11052;43.338;25.502;2023-05-19T05:54:37;100868.59;;;20.26;100.00
2268;BME280;11052;43.338;25.502;2023-05-19T05:57:05;100871.72;;;20.47;100.00
2268;BME280;11052;43.338;25.502;2023-05-19T05:59:32;100875.84;;;20.65;100.00
2268;BME280;11052;43.338;25.502;2023-05-19T06:01:59;100871.75;;;20.88;100.00
2268;BME280;11052;43.338;25.502;2023-05-19T06:04:28;100880.75;;;20.98;100.00
2268;BME280;11052;43.338;25.502;2023-05-19T06:06:55;100873.88;;;20.95;100.00
2268;BME280;11052;43.338;25.502;2023-05-19T06:09:25;100874.88;;;21.21;100.00
2268;BME280;11052;43.338;25.502;2023-05-19T06:11:53;100883.59;;;21.36;100.00
2268;BME280;11052;43.338;25.502;2023-05-19T06:14:20;100882.88;;;21.47;100.00
2268;BME280;11052;43.338;25.502;2023-05-19T06:16:47;100885.84;;;21.55;100.00
2268;BME280;11052;43.338;25.502;2023-05-19T06:19:14;100881.97;;;21.86;100.00
2268;BME280;11052;43.338;25.502;2023-05-19T06:21:42;100882.88;;;22.12;100.00
2268;BME280;11052;43.338;25.502;2023-05-19T06:24:10;100881.50;;;22.32;100.00
2268;BME280;11052;43.338;25.502;2023-05-19T06:26:37;100888.34;;;22.47;100.00
2268;BME280;11052;43.338;25.502;2023-05-19T06:29:04;100888.88;;;22.52;100.00
2268;BME280;11052;43.338;25.502;2023-05-19T06:31:31;100900.13;;;22.67;100.00
2268;BME280;11052;43.338;25.502;2023-05-19T06:33:59;100896.97;;;22.62;100.00
2268;BME280;11052;43.338;25.502;2023-05-19T06:36:26;100892.09;;;22.68;100.00
2268;BME280;11052;43.338;25.502;2023-05-19T06:38:54;100891.44;;;22.90;100.00
2268;BME280;11052;43.338;25.502;2023-05-19T06:41:22;100890.50;;;22.91;100.00
2268;BME280;11052;43.338;25.502;2023-05-19T06:43:49;100894.16;;;23.01;100.00
2268;BME280;11052;43.338;25.502;2023-05-19T06:46:16;100898.34;;;23.16;100.00
2268;BME280;11052;43.338;25.502;2023-05-19T06:48:43;100893.16;;;23.39;100.00
2268;BME280;11052;43.338;25.502;2023-05-19T06:51:10;100897.66;;;23.26;100.00
2268;BME280;11052;43.338;25.502;2023-05-19T06:53:37;100902.06;;;23.14;100.00
2268;BME280;11052;43.338;25.502;2023-05-19T06:56:06;100892.31;;;23.38;100.00
2268;BME280;11052;43.338;25.502;2023-05-19T06:58:33;100897.31;;;23.54;100.00
2268;BME280;11052;43.338;25.502;2023-05-19T07:01:00;100893.50;;;23.45;100.00
2268;BME280;11052;43.338;25.502;2023-05-19T07:03:27;100902.72;;;23.88;100.00
2268;BME280;11052;43.338;25.502;2023-05-19T07:05:55;100903.28;;;24.37;100.00
2268;BME280;11052;43.338;25.502;2023-05-19T07:08:22;100899.44;;;24.64;100.00
2268;BME280;11052;43.338;25.502;2023-05-19T07:10:49;100901.72;;;24.79;100.00
2268;BME280;11052;43.338;25.502;2023-05-19T07:13:18;100905.94;;;25.04;100.00
2268;BME280;11052;43.338;25.502;2023-05-19T07:15:45;100903.94;;;25.17;100.00
2268;BME280;11052;43.338;25.502;2023-05-19T07:18:13;100905.31;;;25.12;100.00
2268;BME280;11052;43.338;25.502;2023-05-19T07:20:40;100904.63;;;25.31;100.00
2268;BME280;11052;43.338;25.502;2023-05-19T07:23:07;100908.09;;;25.10;100.00
2268;BME280;11052;43.338;25.502;2023-05-19T07:25:35;100904.97;;;25.37;100.00
2268;BME280;11052;43.338;25.502;2023-05-19T07:28:02;100905.09;;;25.36;100.00
2268;BME280;11052;43.338;25.502;2023-05-19T07:30:31;100909.44;;;25.37;100.00
2268;BME280;11052;43.338;25.502;2023-05-19T07:32:58;100896.91;;;25.60;100.00
2268;BME280;11052;43.338;25.502;2023-05-19T07:35:25;100911.34;;;24.92;100.00
2268;BME280;11052;43.338;25.502;2023-05-19T07:37:52;100900.16;;;24.77;100.00
2268;BME280;11052;43.338;25.502;2023-05-19T07:40:19;100903.09;;;25.17;100.00
2268;BME280;11052;43.338;25.502;2023-05-19T07:42:48;100906.63;;;24.95;100.00
2268;BME280;11052;43.338;25.502;2023-05-19T07:45:15;100909.06;;;24.54;100.00
2268;BME280;11052;43.338;25.502;2023-05-19T07:47:44;100906.66;;;24.39;100.00
2268;BME280;11052;43.338;25.502;2023-05-19T07:50:11;100906.66;;;24.84;100.00
2268;BME280;11052;43.338;25.502;2023-05-19T07:52:38;100904.00;;;24.84;100.00
2268;BME280;11052;43.338;25.502;2023-05-19T07:55:05;100903.66;;;24.44;100.00
2268;BME280;11052;43.338;25.502;2023-05-19T07:57:32;100902.81;;;24.32;100.00
2268;BME280;11052;43.338;25.502;2023-05-19T08:00:00;100899.56;;;24.51;100.00
2268;BME280;11052;43.338;25.502;2023-05-19T08:02:27;100907.13;;;25.00;100.00
2268;BME280;11052;43.338;25.502;2023-05-19T08:04:56;100909.47;;;25.26;100.00
2268;BME280;11052;43.338;25.502;2023-05-19T08:07:24;100908.22;;;24.87;100.00
2268;BME280;11052;43.338;25.502;2023-05-19T08:09:51;100905.44;;;24.88;100.00
2268;BME280;11052;43.338;25.502;2023-05-19T08:12:18;100905.59;;;25.30;100.00
2268;BME280;11052;43.338;25.502;2023-05-19T08:14:45;100906.06;;;25.67;100.00
2268;BME280;11052;43.338;25.502;2023-05-19T08:17:12;100906.44;;;25.62;97.03
2268;BME280;11052;43.338;25.502;2023-05-19T08:19:39;100910.78;;;25.31;93.66
2268;BME280;11052;43.338;25.502;2023-05-19T08:22:08;100909.06;;;25.09;100.00
2268;BME280;11052;43.338;25.502;2023-05-19T08:24:35;100907.50;;;25.07;100.00
2268;BME280;11052;43.338;25.502;2023-05-19T08:27:03;100904.13;;;25.37;100.00
2268;BME280;11052;43.338;25.502;2023-05-19T08:29:31;100895.72;;;25.21;100.00
2268;BME280;11052;43.338;25.502;2023-05-19T08:31:58;100900.53;;;25.59;100.00
2268;BME280;11052;43.338;25.502;2023-05-19T08:34:26;100907.66;;;25.26;98.47
2268;BME280;11052;43.338;25.502;2023-05-19T08:36:54;100897.03;;;25.26;100.00
2268;BME280;11052;43.338;25.502;2023-05-19T08:39:23;100897.13;;;25.68;95.57
2268;BME280;11052;43.338;25.502;2023-05-19T08:41:52;100892.81;;;25.88;100.00
2268;BME280;11052;43.338;25.502;2023-05-19T08:44:19;100889.56;;;25.52;87.71
2268;BME280;11052;43.338;25.502;2023-05-19T08:46:46;100897.97;;;25.68;100.00
2268;BME280;11052;43.338;25.502;2023-05-19T08:49:15;100900.38;;;25.71;100.00
2268;BME280;11052;43.338;25.502;2023-05-19T08:51:54;100900.78;;;25.88;100.00
2268;BME280;11052;43.338;25.502;2023-05-19T08:54:36;100900.97;;;25.96;99.08
2268;BME280;11052;43.338;25.502;2023-05-19T08:57:06;100899.81;;;26.19;100.00
2268;BME280;11052;43.338;25.502;2023-05-19T08:59:34;100896.25;;;26.30;97.25
2268;BME280;11052;43.338;25.502;2023-05-19T09:02:02;100894.31;;;26.11;93.36
2268;BME280;11052;43.338;25.502;2023-05-19T09:04:31;100890.22;;;25.76;92.10
2268;BME280;11052;43.338;25.502;2023-05-19T09:06:58;100887.81;;;25.73;100.00
2268;BME280;11052;43.338;25.502;2023-05-19T09:09:28;100894.31;;;26.11;100.00
2268;BME280;11052;43.338;25.502;2023-05-19T09:11:56;100894.38;;;26.21;89.01
2268;BME280;11052;43.338;25.502;2023-05-19T09:14:23;100891.31;;;25.74;86.46
2268;BME280;11052;43.338;25.502;2023-05-19T09:16:51;100891.31;;;25.95;100.00
2268;BME280;11052;43.338;25.502;2023-05-19T09:19:18;100892.28;;;26.24;86.98
2268;BME280;11052;43.338;25.502;2023-05-19T09:21:45;100891.38;;;25.84;83.92
2268;BME280;11052;43.338;25.502;2023-05-19T09:24:24;100878.56;;;25.57;86.08
2268;BME280;11052;43.338;25.502;2023-05-19T09:26:54;100872.91;;;25.82;89.79
2268;BME280;11052;43.338;25.502;2023-05-19T09:29:22;100886.41;;;25.58;85.99
2268;BME280;11052;43.338;25.502;2023-05-19T09:31:51;100885.38;;;26.12;99.63
2268;BME280;11052;43.338;25.502;2023-05-19T09:34:19;100884.31;;;26.45;94.67
2268;BME280;11052;43.338;25.502;2023-05-19T09:36:47;100881.72;;;26.64;88.03
2268;BME280;11052;43.338;25.502;2023-05-19T09:39:15;100880.91;;;26.73;92.18
2268;BME280;11052;43.338;25.502;2023-05-19T09:41:43;100868.34;;;26.85;89.59
2268;BME280;11052;43.338;25.502;2023-05-19T09:44:20;100874.13;;;26.60;87.80
2268;BME280;11052;43.338;25.502;2023-05-19T09:46:48;100879.13;;;26.43;86.81
2268;BME280;11052;43.338;25.502;2023-05-19T09:49:20;100866.84;;;26.52;82.27
2268;BME280;11052;43.338;25.502;2023-05-19T09:51:52;100868.31;;;26.95;77.18
2268;BME280;11052;43.338;25.502;2023-05-19T09:54:20;100860.53;;;27.03;78.54
2268;BME280;11052;43.338;25.502;2023-05-19T09:56:55;100873.34;;;26.88;76.82
2268;BME280;11052;43.338;25.502;2023-05-19T09:59:24;100869.75;;;26.99;78.83
2268;BME280;11052;43.338;25.502;2023-05-19T10:01:53;100865.03;;;26.53;81.15
2268;BME280;11052;43.338;25.502;2023-05-19T10:04:22;100861.22;;;26.25;77.00
2268;BME280;11052;43.338;25.502;2023-05-19T10:06:50;100875.59;;;26.12;80.85
2268;BME280;11052;43.338;25.502;2023-05-19T10:09:21;100862.25;;;26.03;75.29
2268;BME280;11052;43.338;25.502;2023-05-19T10:11:50;100865.19;;;26.00;80.79
2268;BME280;11052;43.338;25.502;2023-05-19T10:14:19;100859.63;;;26.12;76.37
2268;BME280;11052;43.338;25.502;2023-05-19T10:16:51;100860.25;;;26.26;77.28
2268;BME280;11052;43.338;25.502;2023-05-19T10:19:20;100856.09;;;26.63;75.84
2268;BME280;11052;43.338;25.502;2023-05-19T10:21:48;100856.81;;;26.65;78.04
2268;BME280;11052;43.338;25.502;2023-05-19T10:24:15;100853.81;;;26.49;75.10
2268;BME280;11052;43.338;25.502;2023-05-19T10:26:45;100853.88;;;26.68;77.87
2268;BME280;11052;43.338;25.502;2023-05-19T10:29:16;100848.72;;;26.86;74.64
2268;BME280;11052;43.338;25.502;2023-05-19T10:31:45;100850.13;;;26.81;80.02
2268;BME280;11052;43.338;25.502;2023-05-19T10:34:27;100839.44;;;26.61;73.68
2268;BME280;11052;43.338;25.502;2023-05-19T10:37:08;100843.31;;;27.17;80.06
2268;BME280;11052;43.338;25.502;2023-05-19T10:39:41;100832.38;;;27.10;73.82
2268;BME280;11052;43.338;25.502;2023-05-19T10:42:14;100840.88;;;26.75;76.42
2268;BME280;11052;43.338;25.502;2023-05-19T10:44:52;100830.34;;;26.64;76.78
2268;BME280;11052;43.338;25.502;2023-05-19T10:47:24;100831.06;;;26.95;77.11
2268;BME280;11052;43.338;25.502;2023-05-19T10:49:53;100821.44;;;27.13;75.64
2268;BME280;11052;43.338;25.502;2023-05-19T10:52:21;100833.91;;;27.03;72.49
2268;BME280;11052;43.338;25.502;2023-05-19T10:54:50;100827.75;;;27.02;72.88
2268;BME280;11052;43.338;25.502;2023-05-19T10:57:20;100820.88;;;27.09;69.97
2268;BME280;11052;43.338;25.502;2023-05-19T10:59:51;100819.06;;;27.20;70.27
2268;BME280;11052;43.338;25.502;2023-05-19T11:02:36;100815.69;;;27.37;70.09
2268;BME280;11052;43.338;25.502;2023-05-19T11:05:10;100816.25;;;27.02;70.14
2268;BME280;11052;43.338;25.502;2023-05-19T11:07:40;100816.19;;;26.23;70.16
2268;BME280;11052;43.338;25.502;2023-05-19T11:10:09;100815.66;;;26.29;72.42
2268;BME280;11052;43.338;25.502;2023-05-19T11:12:41;100808.06;;;25.85;69.52
2268;BME280;11052;43.338;25.502;2023-05-19T11:15:14;100805.00;;;25.89;74.19
2268;BME280;11052;43.338;25.502;2023-05-19T11:17:44;100801.59;;;25.77;73.92
2268;BME280;11052;43.338;25.502;2023-05-19T11:20:21;100799.31;;;26.03;73.69
2268;BME280;11052;43.338;25.502;2023-05-19T11:23:13;100787.75;;;26.44;74.85
2268;BME280;11052;43.338;25.502;2023-05-19T11:25:46;100770.44;;;26.98;72.03
2268;BME280;11052;43.338;25.502;2023-05-19T11:28:15;100773.66;;;27.12;72.16
2268;BME280;11052;43.338;25.502;2023-05-19T11:30:45;100774.47;;;26.64;73.01
2268;BME280;11052;43.338;25.502;2023-05-19T11:33:15;100779.19;;;26.10;73.11
2268;BME280;11052;43.338;25.502;2023-05-19T11:35:46;100784.53;;;25.80;74.29
2268;BME280;11052;43.338;25.502;2023-05-19T11:38:14;100778.38;;;25.79;74.25
2268;BME280;11052;43.338;25.502;2023-05-19T11:40:43;100764.50;;;25.97;76.38
2268;BME280;11052;43.338;25.502;2023-05-19T11:43:10;100778.69;;;25.86;75.00
2268;BME280;11052;43.338;25.502;2023-05-19T11:45:38;100769.88;;;26.26;75.34
2268;BME280;11052;43.338;25.502;2023-05-19T11:48:05;100765.09;;;26.60;76.76
2268;BME280;11052;43.338;25.502;2023-05-19T11:50:34;100756.03;;;26.82;72.02
2268;BME280;11052;43.338;25.502;2023-05-19T11:53:04;100757.41;;;27.15;71.46
2268;BME280;11052;43.338;25.502;2023-05-19T11:55:31;100750.56;;;27.12;71.52
2268;BME280;11052;43.338;25.502;2023-05-19T11:57:59;100737.53;;;26.99;73.41
2268;BME280;11052;43.338;25.502;2023-05-19T12:00:27;100740.63;;;27.04;72.99
2268;BME280;11052;43.338;25.502;2023-05-19T12:02:55;100743.38;;;26.45;73.03
2268;BME280;11052;43.338;25.502;2023-05-19T12:05:23;100734.44;;;26.56;71.94
2268;BME280;11052;43.338;25.502;2023-05-19T12:07:51;100727.88;;;26.69;72.75
2268;BME280;11052;43.338;25.502;2023-05-19T12:10:22;100725.34;;;26.68;70.42
2268;BME280;11052;43.338;25.502;2023-05-19T12:12:49;100707.56;;;26.97;72.12
2268;BME280;11052;43.338;25.502;2023-05-19T12:15:18;100716.94;;;26.72;68.86
2268;BME280;11052;43.338;25.502;2023-05-19T12:17:48;100710.38;;;26.67;70.31
2268;BME280;11052;43.338;25.502;2023-05-19T12:20:16;100704.75;;;26.60;70.72
2268;BME280;11052;43.338;25.502;2023-05-19T12:22:43;100707.13;;;26.54;69.82
2268;BME280;11052;43.338;25.502;2023-05-19T12:25:11;100698.47;;;26.71;72.32
2268;BME280;11052;43.338;25.502;2023-05-19T12:27:42;100697.44;;;26.91;71.37
2268;BME280;11052;43.338;25.502;2023-05-19T12:30:10;100699.84;;;26.94;73.62
2268;BME280;11052;43.338;25.502;2023-05-19T12:32:38;100693.84;;;27.02;68.63
2268;BME280;11052;43.338;25.502;2023-05-19T12:35:06;100704.63;;;27.00;73.04
2268;BME280;11052;43.338;25.502;2023-05-19T12:37:33;100714.16;;;26.74;74.52
2268;BME280;11052;43.338;25.502;2023-05-19T12:40:01;100694.88;;;26.22;75.35
2268;BME280;11052;43.338;25.502;2023-05-19T12:42:29;100693.16;;;25.92;77.89
2268;BME280;11052;43.338;25.502;2023-05-19T12:44:59;100693.94;;;25.73;74.68
2268;BME280;11052;43.338;25.502;2023-05-19T12:47:31;100693.56;;;25.88;77.03
2268;BME280;11052;43.338;25.502;2023-05-19T12:50:03;100698.91;;;26.07;77.69
2268;BME280;11052;43.338;25.502;2023-05-19T12:52:34;100702.72;;;26.24;73.00